OIBA  Abumusa Island Airport

Add Bookmark

Iran

Status IATA
Operational AEU
Latitude Longitude
25° 52' 32" N 55° 1' 58" E
25.875700 55.033001
Local (DST + 5) UTC (GMT + 4)
Jul 29, 2014 03:11 Jul 29, 2014 10:41
Sunrise-Sunset Local UTC
Begin Civil Twilight 05:48 01:18
Sunrise 06:13 01:43
Sunset 07:39 15:09
End Civil Twilight 08:04 15:34

Current Weather

METAR Observed MVFR
OIBA 291000Z 21010KT 6000 SKC 35/29 Q0994 Tue, Jul 29, 2014 @ 10:00 UTC
(41 Minutes ago)
Marginal Visual Flight Rules

Decoded METAR

Wind Visibility Clouds Conditions
210° at 10 knots (19 kph) 6000 meters
  • Clear skies
  • No significant weather
Temperatures Readings Precipitation
Current Temp 35°C (95°F)
Dewpoint 29°C (84°F)
Heat Index 51°C (124°F)
Humidity 71%
Altimeter 29.35"Hg
Sea Level Pressure 994mb
Field Elevation 22.97'
None Recorded

Additional weather within a 92.6km radius of OIBA

Map ICAO Location
OIBS 49.4km W (274°)
OIBL 75.7km N (344°)
OMDB 76.9km S (154°)
OMSJ 77.8km S (141°)

24 Hour Weather History

Loading
-

24 Hour Weather Graphs

Loading
-

CheckWX.com is intended as a tool to help pilots better visualize weather data. It is not intended as a substitute for an official weather briefing obtained from a Flight Service Station. CheckWX.com does not meet the FAA requirements for an official pre-flight weather briefing. Therefore, it's important that pilots still call and obtain an official FSS pre-flight weather briefing.